Wetterdaten: Sonntag, 27.09.2015
Datum Zeit Auen-Temp. Temp gefhlt Luftfeuchte Luftdruck Regen Wind Richtung Richtung Taupunkt Windben
27.09.2015 00:00 9,7 C 9,6 C 85 % 1022,9 hPa 0,0 mm 0,5 km/h (0 Bft) O-NO 67 7,3 C 3,6 km/h (1 Bft)
27.09.2015 00:05 9,6 C 9,5 C 85 % 1022,9 hPa 0,0 mm 1,3 km/h (1 Bft) O-SO 112 7,2 C 0,0 km/h (0 Bft)
27.09.2015 00:10 9,6 C 9,5 C 85 % 1022,9 hPa 0,0 mm 2,6 km/h (1 Bft) N-NO 22 7,2 C 4,1 km/h (1 Bft)
27.09.2015 00:15 9,5 C 9,4 C 85 % 1022,8 hPa 0,0 mm 1,8 km/h (1 Bft) O-NO 67 7,1 C 3,1 km/h (1 Bft)
27.09.2015 00:20 9,4 C 9,3 C 85 % 1022,8 hPa 0,0 mm 0,8 km/h (0 Bft) SO 135 7,0 C 0,0 km/h (0 Bft)
27.09.2015 00:25 9,4 C 9,2 C 85 % 1022,8 hPa 0,0 mm 0,5 km/h (0 Bft) O-NO 67 7,0 C 0,0 km/h (0 Bft)
27.09.2015 00:30 9,4 C 9,2 C 85 % 1022,8 hPa 0,0 mm 0,3 km/h (0 Bft) O-NO 67 7,0 C 0,0 km/h (0 Bft)
27.09.2015 00:35 9,4 C 9,2 C 85 % 1022,9 hPa 0,0 mm 0,0 km/h (0 Bft) SO 135 7,0 C 0,0 km/h (0 Bft)
27.09.2015 00:40 9,4 C 9,2 C 85 % 1022,9 hPa 0,0 mm 0,3 km/h (0 Bft) S-SO 157 7,0 C 0,0 km/h (0 Bft)
27.09.2015 00:45 9,4 C 9,2 C 86 % 1022,9 hPa 0,0 mm 0,8 km/h (0 Bft) O-SO 112 7,2 C 3,6 km/h (1 Bft)
27.09.2015 00:50 9,3 C 9,2 C 86 % 1022,9 hPa 0,0 mm 0,8 km/h (0 Bft) O-SO 112 7,1 C 6,5 km/h (2 Bft)
27.09.2015 00:55 9,2 C 9,1 C 86 % 1022,7 hPa 0,0 mm 0,8 km/h (0 Bft) O-NO 67 7,0 C 0,0 km/h (0 Bft)
27.09.2015 01:00 9,2 C 9,0 C 86 % 1022,7 hPa 0,0 mm 0,3 km/h (0 Bft) S-SW 202 7,0 C 0,0 km/h (0 Bft)
27.09.2015 01:05 9,2 C 9,0 C 86 % 1022,7 hPa 0,0 mm 0,3 km/h (0 Bft) S-SO 157 7,0 C 0,0 km/h (0 Bft)
27.09.2015 01:10 9,1 C 8,9 C 86 % 1022,7 hPa 0,0 mm 0,0 km/h (0 Bft) S 180 6,9 C 0,0 km/h (0 Bft)
27.09.2015 01:15 9,1 C 8,9 C 86 % 1022,8 hPa 0,0 mm 0,0 km/h (0 Bft) S 180 6,9 C 0,0 km/h (0 Bft)
27.09.2015 01:20 9,1 C 8,9 C 86 % 1022,8 hPa 0,0 mm 0,0 km/h (0 Bft) S-SO 157 6,9 C 0,0 km/h (0 Bft)
27.09.2015 01:25 9,1 C 8,9 C 86 % 1022,8 hPa 0,0 mm 0,0 km/h (0 Bft) S-SO 157 6,9 C 0,0 km/h (0 Bft)
27.09.2015 01:30 9,1 C 8,9 C 86 % 1022,8 hPa 0,0 mm 0,0 km/h (0 Bft) SO 135 6,9 C 0,0 km/h (0 Bft)
27.09.2015 01:35 9,1 C 8,9 C 86 % 1022,9 hPa 0,0 mm 0,0 km/h (0 Bft) S 180 6,9 C 0,0 km/h (0 Bft)
27.09.2015 01:40 9,0 C 8,8 C 86 % 1022,9 hPa 0,0 mm 0,0 km/h (0 Bft) S-SO 157 6,8 C 0,0 km/h (0 Bft)
27.09.2015 01:45 9,0 C 8,8 C 86 % 1022,9 hPa 0,0 mm 0,0 km/h (0 Bft) SO 135 6,8 C 0,0 km/h (0 Bft)
27.09.2015 01:50 8,9 C 8,8 C 86 % 1022,8 hPa 0,0 mm 0,5 km/h (0 Bft) O-NO 67 6,7 C 0,0 km/h (0 Bft)
27.09.2015 01:55 8,9 C 8,8 C 86 % 1022,8 hPa 0,0 mm 0,5 km/h (0 Bft) O-NO 67 6,7 C 0,0 km/h (0 Bft)
27.09.2015 02:00 9,0 C 8,8 C 86 % 1022,8 hPa 0,0 mm 0,3 km/h (0 Bft) O-NO 67 6,8 C 3,4 km/h (1 Bft)
27.09.2015 02:05 8,9 C 8,7 C 86 % 1022,8 hPa 0,0 mm 0,3 km/h (0 Bft) W 270 6,7 C 0,0 km/h (0 Bft)
27.09.2015 02:10 8,9 C 8,7 C 86 % 1022,8 hPa 0,0 mm 0,5 km/h (0 Bft) O 90 6,7 C 6,2 km/h (2 Bft)
27.09.2015 02:15 9,0 C 8,8 C 86 % 1022,7 hPa 0,0 mm 0,8 km/h (0 Bft) O-NO 67 6,8 C 5,2 km/h (1 Bft)
27.09.2015 02:20 9,0 C 8,9 C 86 % 1022,7 hPa 0,0 mm 0,8 km/h (0 Bft) O 90 6,8 C 0,0 km/h (0 Bft)
27.09.2015 02:25 9,0 C 8,8 C 86 % 1022,7 hPa 0,0 mm 0,5 km/h (0 Bft) O-SO 112 6,8 C 0,0 km/h (0 Bft)
27.09.2015 02:30 9,0 C 8,8 C 86 % 1022,7 hPa 0,0 mm 0,3 km/h (0 Bft) O-SO 112 6,8 C 0,0 km/h (0 Bft)
27.09.2015 02:35 9,0 C 8,9 C 86 % 1022,8 hPa 0,0 mm 0,3 km/h (0 Bft) O-NO 67 6,8 C 0,0 km/h (0 Bft)
27.09.2015 02:40 9,1 C 8,9 C 86 % 1022,8 hPa 0,0 mm 0,0 km/h (0 Bft) O-NO 67 6,9 C 0,0 km/h (0 Bft)
27.09.2015 02:45 9,1 C 9,0 C 86 % 1022,8 hPa 0,0 mm 0,0 km/h (0 Bft) SO 135 6,9 C 0,0 km/h (0 Bft)
27.09.2015 02:50 9,1 C 9,1 C 84 % 1022,8 hPa 0,0 mm 0,3 km/h (0 Bft) SO 135 6,5 C 0,0 km/h (0 Bft)
27.09.2015 02:55 9,1 C 9,1 C 84 % 1022,6 hPa 0,0 mm 0,3 km/h (0 Bft) O-SO 112 6,5 C 0,0 km/h (0 Bft)
27.09.2015 03:00 9,2 C 9,1 C 87 % 1022,6 hPa 0,0 mm 0,0 km/h (0 Bft) O-SO 112 7,2 C 0,0 km/h (0 Bft)
27.09.2015 03:05 9,2 C 9,2 C 84 % 1022,6 hPa 0,0 mm 0,0 km/h (0 Bft) N-NO 22 6,6 C 2,6 km/h (1 Bft)
27.09.2015 03:10 9,2 C 9,2 C 84 % 1022,6 hPa 0,0 mm 0,0 km/h (0 Bft) NO 45 6,6 C 0,0 km/h (0 Bft)
27.09.2015 03:15 9,2 C 9,2 C 84 % 1022,7 hPa 0,0 mm 0,3 km/h (0 Bft) NO 45 6,6 C 4,4 km/h (1 Bft)
27.09.2015 03:20 9,2 C 9,2 C 84 % 1022,7 hPa 0,0 mm 0,3 km/h (0 Bft) O 90 6,6 C 0,0 km/h (0 Bft)
27.09.2015 03:25 9,2 C 9,1 C 86 % 1022,7 hPa 0,0 mm 0,3 km/h (0 Bft) SO 135 7,0 C 0,0 km/h (0 Bft)
27.09.2015 03:30 9,2 C 9,1 C 86 % 1022,7 hPa 0,0 mm 0,0 km/h (0 Bft) NO 45 7,0 C 0,0 km/h (0 Bft)
27.09.2015 03:35 9,2 C 9,1 C 86 % 1022,6 hPa 0,0 mm 0,0 km/h (0 Bft) O-SO 112 7,0 C 0,0 km/h (0 Bft)
27.09.2015 03:40 9,2 C 9,1 C 86 % 1022,6 hPa 0,0 mm 0,0 km/h (0 Bft) NO 45 7,0 C 0,0 km/h (0 Bft)
27.09.2015 03:45 9,1 C 9,1 C 84 % 1022,6 hPa 0,0 mm 0,3 km/h (0 Bft) O-NO 67 6,5 C 0,0 km/h (0 Bft)
27.09.2015 03:50 9,2 C 9,1 C 87 % 1022,6 hPa 0,0 mm 0,3 km/h (0 Bft) N-NO 22 7,2 C 0,0 km/h (0 Bft)
27.09.2015 03:55 9,2 C 9,1 C 87 % 1022,8 hPa 0,0 mm 0,5 km/h (0 Bft) NO 45 7,2 C 2,8 km/h (1 Bft)
27.09.2015 04:00 9,1 C 9,1 C 84 % 1022,8 hPa 0,0 mm 0,5 km/h (0 Bft) O-NO 67 6,5 C 0,0 km/h (0 Bft)
27.09.2015 04:05 9,1 C 9,1 C 84 % 1022,8 hPa 0,0 mm 0,5 km/h (0 Bft) O-NO 67 6,5 C 0,0 km/h (0 Bft)
27.09.2015 04:10 9,1 C 9,1 C 84 % 1022,8 hPa 0,0 mm 0,0 km/h (0 Bft) O-NO 67 6,5 C 0,0 km/h (0 Bft)
27.09.2015 04:15 9,1 C 9,1 C 85 % 1022,8 hPa 0,0 mm 0,3 km/h (0 Bft) NO 45 6,7 C 2,6 km/h (1 Bft)
27.09.2015 04:20 9,1 C 9,1 C 85 % 1022,8 hPa 0,0 mm 0,8 km/h (0 Bft) N-NO 22 6,7 C 0,0 km/h (0 Bft)
27.09.2015 04:25 9,2 C 9,1 C 87 % 1022,8 hPa 0,0 mm 1,3 km/h (1 Bft) O-NO 67 7,2 C 2,6 km/h (1 Bft)
27.09.2015 04:30 9,2 C 9,1 C 87 % 1022,8 hPa 0,0 mm 1,8 km/h (1 Bft) O-NO 67 7,2 C 4,1 km/h (1 Bft)
27.09.2015 04:35 9,2 C 9,1 C 87 % 1022,6 hPa 0,0 mm 1,8 km/h (1 Bft) O-NO 67 7,2 C 0,0 km/h (0 Bft)
27.09.2015 04:40 9,2 C 9,1 C 87 % 1022,6 hPa 0,0 mm 1,8 km/h (1 Bft) N-NO 22 7,2 C 3,1 km/h (1 Bft)
27.09.2015 04:45 9,2 C 9,1 C 87 % 1022,6 hPa 0,0 mm 1,8 km/h (1 Bft) O-NO 67 7,2 C 7,0 km/h (2 Bft)
27.09.2015 04:50 9,2 C 9,1 C 87 % 1022,6 hPa 0,0 mm 2,3 km/h (1 Bft) O-NO 67 7,2 C 9,6 km/h (2 Bft)
27.09.2015 04:55 9,2 C 9,1 C 87 % 1022,8 hPa 0,0 mm 2,6 km/h (1 Bft) SO 135 7,2 C 3,6 km/h (1 Bft)
27.09.2015 05:00 9,2 C 9,1 C 87 % 1022,8 hPa 0,0 mm 1,3 km/h (1 Bft) N-NO 22 7,2 C 0,0 km/h (0 Bft)
27.09.2015 05:05 9,2 C 9,1 C 87 % 1022,8 hPa 0,0 mm 1,6 km/h (1 Bft) O-NO 67 7,2 C 3,6 km/h (1 Bft)
27.09.2015 05:10 9,2 C 9,1 C 87 % 1022,8 hPa 0,0 mm 2,3 km/h (1 Bft) NO 45 7,2 C 0,0 km/h (0 Bft)
27.09.2015 05:15 9,2 C 9,1 C 87 % 1022,9 hPa 0,0 mm 1,6 km/h (1 Bft) N 360 7,2 C 0,0 km/h (0 Bft)
27.09.2015 05:20 9,2 C 9,1 C 88 % 1022,9 hPa 0,0 mm 1,3 km/h (1 Bft) NO 45 7,3 C 0,0 km/h (0 Bft)
27.09.2015 05:25 9,2 C 9,1 C 88 % 1022,9 hPa 0,0 mm 1,6 km/h (1 Bft) O 90 7,3 C 0,0 km/h (0 Bft)
27.09.2015 05:30 9,1 C 9,1 C 85 % 1022,9 hPa 0,0 mm 2,3 km/h (1 Bft) O-NO 67 6,7 C 7,8 km/h (2 Bft)
27.09.2015 05:35 9,1 C 9,1 C 85 % 1022,7 hPa 0,0 mm 3,1 km/h (1 Bft) O-SO 112 6,7 C 2,8 km/h (1 Bft)
27.09.2015 05:40 9,1 C 9,0 C 88 % 1022,7 hPa 0,0 mm 3,9 km/h (1 Bft) O-NO 67 7,2 C 12,2 km/h (2 Bft)
27.09.2015 05:45 9,1 C 9,1 C 85 % 1022,7 hPa 0,0 mm 4,1 km/h (1 Bft) NO 45 6,7 C 13,5 km/h (3 Bft)
27.09.2015 05:50 9,1 C 9,0 C 88 % 1022,7 hPa 0,0 mm 3,9 km/h (1 Bft) O-NO 67 7,2 C 0,0 km/h (0 Bft)
27.09.2015 05:55 9,1 C 9,0 C 88 % 1022,7 hPa 0,0 mm 2,8 km/h (1 Bft) N-NW 337 7,2 C 0,0 km/h (0 Bft)
27.09.2015 06:00 9,1 C 9,0 C 88 % 1022,7 hPa 0,0 mm 2,8 km/h (1 Bft) SO 135 7,2 C 3,9 km/h (1 Bft)
27.09.2015 06:05 9,1 C 9,0 C 88 % 1022,7 hPa 0,0 mm 3,6 km/h (1 Bft) O-NO 67 7,2 C 4,4 km/h (1 Bft)
27.09.2015 06:10 9,0 C 9,0 C 85 % 1022,7 hPa 0,0 mm 4,1 km/h (1 Bft) NO 45 6,6 C 3,1 km/h (1 Bft)
27.09.2015 06:15 9,0 C 9,0 C 85 % 1022,7 hPa 0,0 mm 4,1 km/h (1 Bft) SO 135 6,6 C 5,7 km/h (1 Bft)
27.09.2015 06:20 9,0 C 9,0 C 85 % 1022,7 hPa 0,0 mm 3,4 km/h (1 Bft) N-NO 22 6,6 C 0,0 km/h (0 Bft)
27.09.2015 06:25 9,0 C 9,0 C 88 % 1022,7 hPa 0,0 mm 3,1 km/h (1 Bft) NO 45 7,1 C 4,9 km/h (1 Bft)
27.09.2015 06:30 9,0 C 9,0 C 88 % 1022,7 hPa 0,0 mm 2,8 km/h (1 Bft) N 360 7,1 C 5,7 km/h (1 Bft)
27.09.2015 06:35 9,0 C 8,9 C 88 % 1022,9 hPa 0,0 mm 2,8 km/h (1 Bft) NO 45 7,1 C 8,5 km/h (2 Bft)
27.09.2015 06:40 8,9 C 8,9 C 86 % 1022,9 hPa 0,0 mm 2,3 km/h (1 Bft) NO 45 6,7 C 3,4 km/h (1 Bft)
27.09.2015 06:45 8,9 C 8,9 C 88 % 1022,9 hPa 0,0 mm 2,1 km/h (1 Bft) SO 135 7,0 C 5,2 km/h (1 Bft)
27.09.2015 06:50 8,9 C 8,8 C 88 % 1022,9 hPa 0,0 mm 4,4 km/h (1 Bft) O-NO 67 7,0 C 6,7 km/h (2 Bft)
27.09.2015 06:55 8,8 C 8,8 C 85 % 1023,0 hPa 0,0 mm 5,2 km/h (1 Bft) NO 45 6,4 C 4,4 km/h (1 Bft)
27.09.2015 07:00 8,8 C 8,7 C 88 % 1023,0 hPa 0,0 mm 6,0 km/h (2 Bft) O-NO 67 6,9 C 15,8 km/h (3 Bft)
27.09.2015 07:05 8,8 C 8,7 C 88 % 1023,0 hPa 0,0 mm 6,7 km/h (2 Bft) O-NO 67 6,9 C 7,3 km/h (2 Bft)
27.09.2015 07:10 8,8 C 8,7 C 88 % 1023,0 hPa 0,0 mm 6,0 km/h (2 Bft) SO 135 6,9 C 5,2 km/h (1 Bft)
27.09.2015 07:15 8,7 C 8,7 C 88 % 1023,3 hPa 0,0 mm 4,9 km/h (1 Bft) O-SO 112 6,8 C 9,3 km/h (2 Bft)
27.09.2015 07:20 8,7 C 8,7 C 87 % 1023,3 hPa 0,0 mm 3,9 km/h (1 Bft) SO 135 6,7 C 0,0 km/h (0 Bft)
27.09.2015 07:25 8,7 C 8,7 C 87 % 1023,3 hPa 0,0 mm 4,7 km/h (1 Bft) NO 45 6,7 C 3,6 km/h (1 Bft)
27.09.2015 07:30 8,6 C 8,6 C 85 % 1023,3 hPa 0,0 mm 4,9 km/h (1 Bft) NO 45 6,2 C 16,8 km/h (3 Bft)
27.09.2015 07:35 8,6 C 8,6 C 85 % 1023,3 hPa 0,0 mm 4,7 km/h (1 Bft) O 90 6,2 C 0,0 km/h (0 Bft)
27.09.2015 07:40 8,6 C 8,6 C 85 % 1023,3 hPa 0,0 mm 3,4 km/h (1 Bft) N-NO 22 6,2 C 2,8 km/h (1 Bft)
27.09.2015 07:45 8,6 C 8,6 C 85 % 1023,3 hPa 0,0 mm 2,3 km/h (1 Bft) O-NO 67 6,2 C 5,4 km/h (1 Bft)
27.09.2015 07:50 8,6 C 8,6 C 85 % 1023,4 hPa 0,0 mm 2,1 km/h (1 Bft) N-NW 337 6,2 C 0,0 km/h (0 Bft)
27.09.2015 07:51 8,6 C 8,6 C 85 % 1023,4 hPa 0,0 mm 2,1 km/h (1 Bft) N-NW 337 6,2 C 0,0 km/h (0 Bft)
27.09.2015 07:55 8,6 C 8,6 C 85 % 1023,4 hPa 0,0 mm 2,1 km/h (1 Bft) N-NW 337 6,2 C 0,0 km/h (0 Bft)
27.09.2015 08:00 8,6 C 8,7 C 85 % 1023,4 hPa 0,0 mm 2,6 km/h (1 Bft) NO 45 6,2 C 4,9 km/h (1 Bft)
27.09.2015 08:05 8,6 C 8,7 C 85 % 1023,4 hPa 0,0 mm 2,1 km/h (1 Bft) N-NO 22 6,2 C 0,0 km/h (0 Bft)
27.09.2015 08:10 8,6 C 8,7 C 85 % 1023,4 hPa 0,0 mm 1,3 km/h (1 Bft) O-SO 112 6,2 C 0,0 km/h (0 Bft)
27.09.2015 08:15 8,6 C 8,8 C 84 % 1023,7 hPa 0,0 mm 1,3 km/h (1 Bft) NO 45 6,1 C 5,4 km/h (1 Bft)
27.09.2015 08:20 8,6 C 8,9 C 84 % 1023,7 hPa 0,0 mm 1,8 km/h (1 Bft) O-NO 67 6,1 C 6,0 km/h (2 Bft)
27.09.2015 08:25 8,7 C 8,9 C 84 % 1023,7 hPa 0,0 mm 2,3 km/h (1 Bft) O-NO 67 6,2 C 4,4 km/h (1 Bft)
27.09.2015 08:30 8,7 C 9,0 C 84 % 1023,7 hPa 0,0 mm 2,8 km/h (1 Bft) O-NO 67 6,2 C 3,9 km/h (1 Bft)
27.09.2015 08:35 8,7 C 9,2 C 84 % 1023,9 hPa 0,0 mm 2,1 km/h (1 Bft) N-NW 337 6,2 C 0,0 km/h (0 Bft)
27.09.2015 08:40 8,8 C 9,3 C 84 % 1023,9 hPa 0,0 mm 2,3 km/h (1 Bft) O-SO 112 6,2 C 3,6 km/h (1 Bft)
27.09.2015 08:45 8,8 C 9,3 C 84 % 1023,9 hPa 0,0 mm 3,1 km/h (1 Bft) O-NO 67 6,2 C 2,6 km/h (1 Bft)
27.09.2015 08:50 8,8 C 9,4 C 84 % 1023,9 hPa 0,0 mm 3,9 km/h (1 Bft) N-NO 22 6,2 C 2,8 km/h (1 Bft)
27.09.2015 08:55 8,8 C 9,5 C 84 % 1023,9 hPa 0,0 mm 3,9 km/h (1 Bft) NO 45 6,2 C 9,3 km/h (2 Bft)
27.09.2015 09:00 8,8 C 9,3 C 83 % 1023,9 hPa 0,0 mm 4,7 km/h (1 Bft) NO 45 6,1 C 8,0 km/h (2 Bft)
27.09.2015 09:05 8,7 C 9,3 C 83 % 1023,9 hPa 0,0 mm 5,2 km/h (1 Bft) O-NO 67 6,0 C 6,2 km/h (2 Bft)
27.09.2015 09:10 8,8 C 9,5 C 83 % 1023,9 hPa 0,0 mm 5,2 km/h (1 Bft) O 90 6,1 C 12,9 km/h (3 Bft)
27.09.2015 09:15 8,9 C 9,6 C 83 % 1024,3 hPa 0,0 mm 5,7 km/h (1 Bft) S-SO 157 6,2 C 5,4 km/h (1 Bft)
27.09.2015 09:20 9,0 C 9,8 C 83 % 1024,3 hPa 0,0 mm 6,7 km/h (2 Bft) O-NO 67 6,3 C 24,3 km/h (4 Bft)
27.09.2015 09:25 9,0 C 9,8 C 83 % 1024,3 hPa 0,0 mm 5,7 km/h (1 Bft) O-SO 112 6,3 C 4,7 km/h (1 Bft)
27.09.2015 09:30 9,1 C 10,0 C 83 % 1024,3 hPa 0,0 mm 6,5 km/h (2 Bft) O-NO 67 6,4 C 14,0 km/h (3 Bft)
27.09.2015 09:35 9,1 C 10,2 C 82 % 1024,3 hPa 0,0 mm 7,3 km/h (2 Bft) NO 45 6,2 C 11,9 km/h (2 Bft)
27.09.2015 09:40 9,2 C 10,1 C 82 % 1024,3 hPa 0,0 mm 7,5 km/h (2 Bft) W 270 6,3 C 6,2 km/h (2 Bft)
27.09.2015 09:45 9,3 C 10,3 C 82 % 1024,3 hPa 0,0 mm 7,0 km/h (2 Bft) NO 45 6,4 C 14,2 km/h (3 Bft)
27.09.2015 09:50 9,3 C 10,1 C 82 % 1024,3 hPa 0,0 mm 7,0 km/h (2 Bft) N-NO 22 6,4 C 8,8 km/h (2 Bft)
27.09.2015 09:55 9,3 C 10,4 C 82 % 1024,8 hPa 0,0 mm 6,7 km/h (2 Bft) S-SO 157 6,4 C 14,8 km/h (3 Bft)
27.09.2015 10:00 9,3 C 10,3 C 81 % 1024,8 hPa 0,0 mm 6,2 km/h (2 Bft) O-NO 67 6,2 C 15,0 km/h (3 Bft)
27.09.2015 10:05 9,3 C 10,2 C 81 % 1024,8 hPa 0,0 mm 6,2 km/h (2 Bft) W-SW 247 6,2 C 7,3 km/h (2 Bft)
27.09.2015 10:10 9,4 C 10,7 C 81 % 1024,8 hPa 0,0 mm 5,4 km/h (1 Bft) N-NO 22 6,3 C 10,4 km/h (2 Bft)
27.09.2015 10:15 9,5 C 10,8 C 80 % 1024,9 hPa 0,0 mm 6,0 km/h (2 Bft) O-SO 112 6,2 C 7,8 km/h (2 Bft)
27.09.2015 10:20 10,0 C 11,9 C 79 % 1024,9 hPa 0,0 mm 9,1 km/h (2 Bft) NO 45 6,5 C 25,6 km/h (4 Bft)
27.09.2015 10:25 10,1 C 12,2 C 79 % 1024,9 hPa 0,0 mm 9,3 km/h (2 Bft) NO 45 6,6 C 7,8 km/h (2 Bft)
27.09.2015 10:30 10,1 C 12,5 C 79 % 1024,9 hPa 0,0 mm 8,0 km/h (2 Bft) N-NW 337 6,6 C 12,9 km/h (3 Bft)
27.09.2015 10:35 10,0 C 12,1 C 78 % 1025,3 hPa 0,0 mm 8,5 km/h (2 Bft) N-NO 22 6,3 C 8,0 km/h (2 Bft)
27.09.2015 10:40 10,0 C 10,8 C 78 % 1025,3 hPa 0,0 mm 11,1 km/h (2 Bft) O-NO 67 6,3 C 10,1 km/h (2 Bft)
27.09.2015 10:45 10,1 C 11,2 C 78 % 1025,3 hPa 0,0 mm 10,4 km/h (2 Bft) O-NO 67 6,4 C 16,1 km/h (3 Bft)
27.09.2015 10:50 10,7 C 12,9 C 77 % 1025,3 hPa 0,0 mm 8,8 km/h (2 Bft) O-SO 112 6,8 C 14,8 km/h (3 Bft)
27.09.2015 10:55 10,6 C 13,0 C 77 % 1025,9 hPa 0,0 mm 7,5 km/h (2 Bft) NO 45 6,7 C 9,1 km/h (2 Bft)
27.09.2015 11:00 10,4 C 12,6 C 76 % 1025,9 hPa 0,0 mm 8,0 km/h (2 Bft) NO 45 6,4 C 11,9 km/h (2 Bft)
27.09.2015 11:05 10,4 C 11,9 C 76 % 1025,9 hPa 0,0 mm 9,1 km/h (2 Bft) N-NO 22 6,4 C 12,9 km/h (3 Bft)
27.09.2015 11:10 10,5 C 11,2 C 75 % 1025,9 hPa 0,0 mm 11,7 km/h (2 Bft) O-NO 67 6,3 C 11,4 km/h (2 Bft)
27.09.2015 11:15 11,0 C 12,0 C 75 % 1025,9 hPa 0,0 mm 11,1 km/h (2 Bft) O-NO 67 6,7 C 16,6 km/h (3 Bft)
27.09.2015 11:20 11,3 C 13,7 C 74 % 1025,9 hPa 0,0 mm 10,1 km/h (2 Bft) N-NO 22 6,8 C 20,2 km/h (4 Bft)
27.09.2015 11:25 11,4 C 13,7 C 73 % 1025,9 hPa 0,0 mm 11,4 km/h (2 Bft) NO 45 6,7 C 13,7 km/h (3 Bft)
27.09.2015 11:30 12,1 C 15,0 C 72 % 1025,9 hPa 0,0 mm 11,1 km/h (2 Bft) O 90 7,2 C 10,4 km/h (2 Bft)
27.09.2015 11:35 12,5 C 16,1 C 71 % 1026,4 hPa 0,0 mm 10,4 km/h (2 Bft) NO 45 7,4 C 18,6 km/h (3 Bft)
27.09.2015 11:40 12,4 C 16,0 C 69 % 1026,4 hPa 0,0 mm 9,8 km/h (2 Bft) N-NO 22 6,9 C 3,4 km/h (1 Bft)
27.09.2015 11:45 12,3 C 15,8 C 69 % 1026,4 hPa 0,0 mm 9,1 km/h (2 Bft) O-NO 67 6,8 C 21,5 km/h (4 Bft)
27.09.2015 11:50 12,3 C 15,3 C 68 % 1026,4 hPa 0,0 mm 10,1 km/h (2 Bft) N 360 6,6 C 14,8 km/h (3 Bft)
27.09.2015 11:55 12,3 C 15,4 C 67 % 1027,0 hPa 0,0 mm 13,7 km/h (3 Bft) N-NO 22 6,4 C 11,1 km/h (2 Bft)
27.09.2015 12:00 12,1 C 14,6 C 67 % 1027,0 hPa 0,0 mm 11,9 km/h (2 Bft) NO 45 6,2 C 26,2 km/h (4 Bft)
27.09.2015 12:05 12,0 C 14,1 C 66 % 1027,0 hPa 0,0 mm 12,2 km/h (2 Bft) NO 45 5,8 C 13,2 km/h (3 Bft)
27.09.2015 12:10 12,0 C 14,1 C 66 % 1027,0 hPa 0,0 mm 13,2 km/h (3 Bft) O-NO 67 5,8 C 27,2 km/h (4 Bft)
27.09.2015 12:15 12,3 C 14,5 C 66 % 1026,9 hPa 0,0 mm 12,4 km/h (3 Bft) NO 45 6,1 C 13,7 km/h (3 Bft)
27.09.2015 12:20 12,5 C 15,2 C 65 % 1026,9 hPa 0,0 mm 12,9 km/h (3 Bft) S-SO 157 6,1 C 27,4 km/h (4 Bft)
27.09.2015 12:25 12,3 C 15,0 C 64 % 1026,9 hPa 0,0 mm 14,2 km/h (3 Bft) O-NO 67 5,7 C 17,1 km/h (3 Bft)
27.09.2015 12:30 12,1 C 14,3 C 64 % 1026,9 hPa 0,0 mm 16,3 km/h (3 Bft) N-NO 22 5,5 C 23,3 km/h (4 Bft)
27.09.2015 12:35 12,1 C 13,6 C 63 % 1026,9 hPa 0,0 mm 17,1 km/h (3 Bft) O-NO 67 5,3 C 21,5 km/h (4 Bft)
27.09.2015 12:40 12,2 C 13,2 C 64 % 1026,9 hPa 0,0 mm 16,8 km/h (3 Bft) NO 45 5,6 C 23,3 km/h (4 Bft)
27.09.2015 12:45 12,3 C 13,5 C 64 % 1026,9 hPa 0,0 mm 14,8 km/h (3 Bft) O-NO 67 5,7 C 14,5 km/h (3 Bft)
27.09.2015 12:50 12,2 C 13,4 C 63 % 1026,9 hPa 0,0 mm 14,8 km/h (3 Bft) N-NW 337 5,4 C 29,8 km/h (5 Bft)
27.09.2015 12:55 12,2 C 13,6 C 64 % 1026,7 hPa 0,0 mm 13,2 km/h (3 Bft) O-NO 67 5,6 C 15,8 km/h (3 Bft)
27.09.2015 13:00 12,1 C 13,5 C 63 % 1026,7 hPa 0,0 mm 11,9 km/h (2 Bft) N-NO 22 5,3 C 21,8 km/h (4 Bft)
27.09.2015 13:05 12,0 C 13,3 C 63 % 1026,7 hPa 0,0 mm 11,7 km/h (2 Bft) NO 45 5,2 C 12,4 km/h (3 Bft)
27.09.2015 13:10 12,1 C 13,7 C 63 % 1026,7 hPa 0,0 mm 10,1 km/h (2 Bft) NO 45 5,3 C 14,8 km/h (3 Bft)
27.09.2015 13:15 12,4 C 14,0 C 63 % 1026,6 hPa 0,0 mm 8,0 km/h (2 Bft) O-NO 67 5,6 C 8,5 km/h (2 Bft)
27.09.2015 13:20 12,6 C 14,8 C 63 % 1026,6 hPa 0,0 mm 7,0 km/h (2 Bft) SO 135 5,7 C 6,0 km/h (2 Bft)
27.09.2015 13:25 12,8 C 15,1 C 64 % 1026,6 hPa 0,0 mm 6,5 km/h (2 Bft) O 90 6,2 C 5,4 km/h (1 Bft)
27.09.2015 13:30 12,8 C 15,6 C 63 % 1026,6 hPa 0,0 mm 7,5 km/h (2 Bft) O 90 5,9 C 15,5 km/h (3 Bft)
27.09.2015 13:35 12,7 C 15,3 C 62 % 1026,4 hPa 0,0 mm 8,0 km/h (2 Bft) O-NO 67 5,6 C 7,0 km/h (2 Bft)
27.09.2015 13:40 12,8 C 15,4 C 63 % 1026,4 hPa 0,0 mm 7,8 km/h (2 Bft) NO 45 5,9 C 3,9 km/h (1 Bft)
27.09.2015 13:45 12,8 C 15,7 C 63 % 1026,4 hPa 0,0 mm 6,0 km/h (2 Bft) O-SO 112 5,9 C 4,1 km/h (1 Bft)
27.09.2015 13:50 12,8 C 15,4 C 63 % 1026,4 hPa 0,0 mm 6,7 km/h (2 Bft) W 270 5,9 C 6,5 km/h (2 Bft)
27.09.2015 13:52 12,7 C 15,2 C 62 % 1026,3 hPa 0,0 mm 7,8 km/h (2 Bft) O-SO 112 5,6 C 10,4 km/h (2 Bft)
27.09.2015 13:55 12,7 C 15,2 C 62 % 1026,3 hPa 0,0 mm 7,8 km/h (2 Bft) O-SO 112 5,6 C 10,4 km/h (2 Bft)
27.09.2015 14:00 12,7 C 14,9 C 63 % 1026,3 hPa 0,0 mm 8,3 km/h (2 Bft) O-NO 67 5,8 C 6,7 km/h (2 Bft)
27.09.2015 14:05 12,8 C 14,9 C 63 % 1026,3 hPa 0,0 mm 8,0 km/h (2 Bft) NO 45 5,9 C 11,4 km/h (2 Bft)
27.09.2015 14:10 12,8 C 14,9 C 63 % 1026,3 hPa 0,0 mm 7,8 km/h (2 Bft) O-NO 67 5,9 C 15,0 km/h (3 Bft)
27.09.2015 14:15 12,7 C 14,7 C 62 % 1026,3 hPa 0,0 mm 9,1 km/h (2 Bft) O 90 5,6 C 9,8 km/h (2 Bft)
27.09.2015 14:20 12,7 C 14,7 C 62 % 1026,3 hPa 0,0 mm 8,0 km/h (2 Bft) O-SO 112 5,6 C 11,9 km/h (2 Bft)
27.09.2015 14:25 12,8 C 14,7 C 62 % 1026,3 hPa 0,0 mm 6,7 km/h (2 Bft) SO 135 5,7 C 8,5 km/h (2 Bft)
27.09.2015 14:30 12,8 C 14,9 C 62 % 1026,3 hPa 0,0 mm 7,5 km/h (2 Bft) O 90 5,7 C 6,0 km/h (2 Bft)
27.09.2015 14:35 12,8 C 14,9 C 62 % 1026,3 hPa 0,0 mm 7,5 km/h (2 Bft) O-NO 67 5,7 C 8,8 km/h (2 Bft)
27.09.2015 14:40 13,0 C 14,9 C 61 % 1026,3 hPa 0,0 mm 7,5 km/h (2 Bft) N-NO 22 5,7 C 10,4 km/h (2 Bft)
27.09.2015 14:45 13,0 C 14,9 C 61 % 1026,3 hPa 0,0 mm 8,0 km/h (2 Bft) N-NO 22 5,7 C 15,3 km/h (3 Bft)
27.09.2015 14:50 12,9 C 14,7 C 62 % 1026,3 hPa 0,0 mm 9,3 km/h (2 Bft) N-NO 22 5,8 C 11,1 km/h (2 Bft)
27.09.2015 14:55 12,8 C 14,4 C 61 % 1026,4 hPa 0,0 mm 10,6 km/h (2 Bft) O-NO 67 5,5 C 19,9 km/h (4 Bft)
27.09.2015 15:00 12,6 C 14,3 C 62 % 1026,4 hPa 0,0 mm 10,1 km/h (2 Bft) N-NO 22 5,5 C 14,2 km/h (3 Bft)
27.09.2015 15:05 12,7 C 14,4 C 62 % 1026,4 hPa 0,0 mm 9,8 km/h (2 Bft) O-NO 67 5,6 C 22,3 km/h (4 Bft)
27.09.2015 15:10 12,7 C 14,4 C 62 % 1026,4 hPa 0,0 mm 9,3 km/h (2 Bft) O-NO 67 5,6 C 7,3 km/h (2 Bft)
27.09.2015 15:15 12,7 C 14,4 C 63 % 1026,3 hPa 0,0 mm 9,6 km/h (2 Bft) O-NO 67 5,8 C 14,2 km/h (3 Bft)
27.09.2015 15:20 12,6 C 14,2 C 63 % 1026,3 hPa 0,0 mm 8,0 km/h (2 Bft) O-SO 112 5,7 C 3,9 km/h (1 Bft)
27.09.2015 15:25 12,6 C 14,2 C 64 % 1026,3 hPa 0,0 mm 7,0 km/h (2 Bft) NO 45 6,0 C 15,8 km/h (3 Bft)
27.09.2015 15:30 12,4 C 13,8 C 64 % 1026,3 hPa 0,0 mm 9,3 km/h (2 Bft) N-NO 22 5,8 C 16,3 km/h (3 Bft)
27.09.2015 15:35 12,4 C 13,3 C 64 % 1026,5 hPa 0,0 mm 11,4 km/h (2 Bft) N-NO 22 5,8 C 9,8 km/h (2 Bft)
27.09.2015 15:40 12,3 C 13,4 C 65 % 1026,5 hPa 0,0 mm 9,3 km/h (2 Bft) N 360 5,9 C 13,7 km/h (3 Bft)
27.09.2015 15:45 12,2 C 13,1 C 65 % 1026,5 hPa 0,0 mm 9,8 km/h (2 Bft) NO 45 5,8 C 16,1 km/h (3 Bft)
27.09.2015 15:50 12,2 C 12,9 C 65 % 1026,5 hPa 0,0 mm 10,6 km/h (2 Bft) NO 45 5,8 C 37,8 km/h (5 Bft)
27.09.2015 15:55 12,1 C 12,8 C 65 % 1026,4 hPa 0,0 mm 10,1 km/h (2 Bft) NO 45 5,7 C 15,5 km/h (3 Bft)
27.09.2015 16:00 12,0 C 12,3 C 65 % 1026,4 hPa 0,0 mm 11,9 km/h (2 Bft) N-NO 22 5,6 C 16,1 km/h (3 Bft)
27.09.2015 16:05 11,9 C 12,4 C 65 % 1026,4 hPa 0,0 mm 14,0 km/h (3 Bft) NO 45 5,5 C 21,5 km/h (4 Bft)
27.09.2015 16:10 11,9 C 12,2 C 65 % 1026,4 hPa 0,0 mm 13,5 km/h (3 Bft) NO 45 5,5 C 14,2 km/h (3 Bft)
27.09.2015 16:15 11,8 C 12,2 C 65 % 1026,5 hPa 0,0 mm 11,4 km/h (2 Bft) N-NO 22 5,4 C 10,9 km/h (2 Bft)
27.09.2015 16:20 11,8 C 12,7 C 65 % 1026,5 hPa 0,0 mm 8,3 km/h (2 Bft) O-NO 67 5,4 C 10,6 km/h (2 Bft)
27.09.2015 16:25 11,7 C 12,6 C 65 % 1026,5 hPa 0,0 mm 8,0 km/h (2 Bft) O-SO 112 5,3 C 7,5 km/h (2 Bft)
27.09.2015 16:30 11,7 C 12,6 C 66 % 1026,5 hPa 0,0 mm 7,5 km/h (2 Bft) O-NO 67 5,6 C 9,3 km/h (2 Bft)
27.09.2015 16:35 11,6 C 12,5 C 66 % 1026,5 hPa 0,0 mm 7,0 km/h (2 Bft) NO 45 5,5 C 7,0 km/h (2 Bft)
27.09.2015 16:40 11,5 C 12,4 C 67 % 1026,5 hPa 0,0 mm 7,8 km/h (2 Bft) O-NO 67 5,6 C 11,4 km/h (2 Bft)
27.09.2015 16:45 11,4 C 12,2 C 67 % 1026,5 hPa 0,0 mm 7,5 km/h (2 Bft) O-NO 67 5,5 C 15,5 km/h (3 Bft)
27.09.2015 16:50 11,3 C 12,0 C 66 % 1026,5 hPa 0,0 mm 7,5 km/h (2 Bft) NO 45 5,2 C 5,7 km/h (1 Bft)
27.09.2015 16:55 11,3 C 11,9 C 66 % 1026,8 hPa 0,0 mm 7,5 km/h (2 Bft) O-NO 67 5,2 C 9,6 km/h (2 Bft)
27.09.2015 17:00 11,2 C 11,7 C 66 % 1026,8 hPa 0,0 mm 8,3 km/h (2 Bft) NO 45 5,1 C 11,9 km/h (2 Bft)
27.09.2015 17:05 11,2 C 11,7 C 67 % 1026,8 hPa 0,0 mm 7,8 km/h (2 Bft) N-NO 22 5,3 C 8,3 km/h (2 Bft)
27.09.2015 17:10 11,1 C 11,7 C 67 % 1026,8 hPa 0,0 mm 7,0 km/h (2 Bft) O 90 5,2 C 6,5 km/h (2 Bft)
27.09.2015 17:15 11,1 C 11,3 C 67 % 1026,7 hPa 0,0 mm 9,8 km/h (2 Bft) NO 45 5,2 C 19,9 km/h (4 Bft)
27.09.2015 17:20 11,1 C 11,0 C 67 % 1026,7 hPa 0,0 mm 11,4 km/h (2 Bft) W-SW 247 5,2 C 14,5 km/h (3 Bft)
27.09.2015 17:25 11,0 C 11,2 C 67 % 1026,7 hPa 0,0 mm 9,6 km/h (2 Bft) NO 45 5,1 C 13,5 km/h (3 Bft)
27.09.2015 17:30 11,0 C 11,3 C 68 % 1026,7 hPa 0,0 mm 8,3 km/h (2 Bft) S-SO 157 5,3 C 17,9 km/h (3 Bft)
27.09.2015 17:35 11,0 C 11,1 C 68 % 1026,8 hPa 0,0 mm 8,8 km/h (2 Bft) N-NO 22 5,3 C 8,0 km/h (2 Bft)
27.09.2015 17:40 10,9 C 11,0 C 68 % 1026,8 hPa 0,0 mm 9,1 km/h (2 Bft) O-NO 67 5,2 C 9,3 km/h (2 Bft)
27.09.2015 17:45 10,9 C 11,0 C 68 % 1026,8 hPa 0,0 mm 8,8 km/h (2 Bft) O-SO 112 5,2 C 7,5 km/h (2 Bft)
27.09.2015 17:50 10,9 C 10,9 C 68 % 1026,8 hPa 0,0 mm 8,3 km/h (2 Bft) O-NO 67 5,2 C 13,7 km/h (3 Bft)
27.09.2015 17:55 10,8 C 10,9 C 69 % 1026,9 hPa 0,0 mm 7,5 km/h (2 Bft) N-NO 22 5,3 C 6,7 km/h (2 Bft)
27.09.2015 18:00 10,8 C 10,7 C 69 % 1026,9 hPa 0,0 mm 9,1 km/h (2 Bft) SO 135 5,3 C 10,6 km/h (2 Bft)
27.09.2015 18:05 10,7 C 10,6 C 69 % 1026,9 hPa 0,0 mm 8,8 km/h (2 Bft) N-NO 22 5,2 C 9,3 km/h (2 Bft)
27.09.2015 18:10 10,7 C 10,7 C 69 % 1026,9 hPa 0,0 mm 6,5 km/h (2 Bft) O 90 5,2 C 13,5 km/h (3 Bft)
27.09.2015 18:15 10,6 C 10,6 C 69 % 1026,9 hPa 0,0 mm 6,5 km/h (2 Bft) O-NO 67 5,2 C 3,6 km/h (1 Bft)
27.09.2015 18:20 10,5 C 10,4 C 69 % 1026,9 hPa 0,0 mm 8,5 km/h (2 Bft) NO 45 5,1 C 12,7 km/h (3 Bft)
27.09.2015 18:25 10,5 C 10,4 C 69 % 1026,9 hPa 0,0 mm 8,3 km/h (2 Bft) NO 45 5,1 C 12,2 km/h (2 Bft)
27.09.2015 18:30 10,5 C 10,4 C 70 % 1026,9 hPa 0,0 mm 6,5 km/h (2 Bft) NO 45 5,3 C 5,2 km/h (1 Bft)
27.09.2015 18:35 10,4 C 10,4 C 70 % 1027,1 hPa 0,0 mm 6,5 km/h (2 Bft) O-NO 67 5,2 C 9,6 km/h (2 Bft)
27.09.2015 18:40 10,3 C 10,3 C 71 % 1027,1 hPa 0,0 mm 7,0 km/h (2 Bft) NO 45 5,3 C 8,8 km/h (2 Bft)
27.09.2015 18:45 10,2 C 10,2 C 71 % 1027,1 hPa 0,0 mm 7,0 km/h (2 Bft) O 90 5,2 C 7,0 km/h (2 Bft)
27.09.2015 18:50 10,1 C 10,1 C 72 % 1027,1 hPa 0,0 mm 6,7 km/h (2 Bft) O-NO 67 5,3 C 5,2 km/h (1 Bft)
27.09.2015 18:55 10,1 C 10,0 C 72 % 1027,3 hPa 0,0 mm 5,4 km/h (1 Bft) N-NO 22 5,3 C 3,9 km/h (1 Bft)
27.09.2015 19:00 9,9 C 9,9 C 73 % 1027,3 hPa 0,0 mm 3,1 km/h (1 Bft) O-NO 67 5,3 C 3,4 km/h (1 Bft)
27.09.2015 19:05 9,9 C 9,8 C 73 % 1027,3 hPa 0,0 mm 2,3 km/h (1 Bft) O-NO 67 5,3 C 6,5 km/h (2 Bft)
27.09.2015 19:10 9,7 C 9,6 C 73 % 1027,3 hPa 0,0 mm 1,6 km/h (1 Bft) O-NO 67 5,1 C 0,0 km/h (0 Bft)
27.09.2015 19:15 9,7 C 9,6 C 74 % 1027,5 hPa 0,0 mm 1,6 km/h (1 Bft) O-NO 67 5,3 C 2,8 km/h (1 Bft)
27.09.2015 19:20 9,6 C 9,5 C 74 % 1027,5 hPa 0,0 mm 2,1 km/h (1 Bft) O 90 5,2 C 4,1 km/h (1 Bft)
27.09.2015 19:25 9,6 C 9,5 C 74 % 1027,5 hPa 0,0 mm 2,3 km/h (1 Bft) O-NO 67 5,2 C 3,1 km/h (1 Bft)
27.09.2015 19:30 9,5 C 9,4 C 74 % 1027,5 hPa 0,0 mm 2,1 km/h (1 Bft) O-NO 67 5,1 C 0,0 km/h (0 Bft)
27.09.2015 19:35 9,4 C 9,3 C 74 % 1027,6 hPa 0,0 mm 1,8 km/h (1 Bft) NO 45 5,0 C 0,0 km/h (0 Bft)
27.09.2015 19:40 9,3 C 9,2 C 74 % 1027,6 hPa 0,0 mm 2,3 km/h (1 Bft) O-NO 67 4,9 C 2,6 km/h (1 Bft)
27.09.2015 19:45 9,2 C 9,1 C 74 % 1027,6 hPa 0,0 mm 1,8 km/h (1 Bft) O-NO 67 4,8 C 2,8 km/h (1 Bft)
27.09.2015 19:50 9,2 C 9,1 C 75 % 1027,6 hPa 0,0 mm 1,0 km/h (0 Bft) O-NO 67 5,0 C 0,0 km/h (0 Bft)
27.09.2015 19:53 9,1 C 9,0 C 75 % 1027,7 hPa 0,0 mm 1,3 km/h (1 Bft) O-NO 67 4,9 C 3,6 km/h (1 Bft)
27.09.2015 19:55 9,1 C 9,0 C 75 % 1027,7 hPa 0,0 mm 1,3 km/h (1 Bft) O-NO 67 4,9 C 3,6 km/h (1 Bft)
27.09.2015 20:00 9,1 C 9,0 C 75 % 1027,7 hPa 0,0 mm 1,8 km/h (1 Bft) O-NO 67 4,9 C 3,4 km/h (1 Bft)
27.09.2015 20:05 9,0 C 8,9 C 75 % 1027,7 hPa 0,0 mm 1,8 km/h (1 Bft) S-SW 202 4,8 C 0,0 km/h (0 Bft)
27.09.2015 20:10 9,0 C 8,9 C 75 % 1027,7 hPa 0,0 mm 1,0 km/h (0 Bft) SO 135 4,8 C 0,0 km/h (0 Bft)
27.09.2015 20:15 9,0 C 8,9 C 75 % 1027,8 hPa 0,0 mm 1,3 km/h (1 Bft) N 360 4,8 C 0,0 km/h (0 Bft)
27.09.2015 20:20 8,9 C 8,8 C 75 % 1027,8 hPa 0,0 mm 2,1 km/h (1 Bft) O-SO 112 4,7 C 0,0 km/h (0 Bft)
27.09.2015 20:25 8,8 C 8,7 C 75 % 1027,8 hPa 0,0 mm 1,6 km/h (1 Bft) N-NO 22 4,6 C 3,1 km/h (1 Bft)
27.09.2015 20:30 8,6 C 8,5 C 75 % 1027,8 hPa 0,0 mm 0,8 km/h (0 Bft) N 360 4,4 C 0,0 km/h (0 Bft)
27.09.2015 20:35 8,6 C 8,5 C 76 % 1028,0 hPa 0,0 mm 0,8 km/h (0 Bft) O-NO 67 4,6 C 0,0 km/h (0 Bft)
27.09.2015 20:40 8,6 C 8,4 C 76 % 1028,0 hPa 0,0 mm 0,5 km/h (0 Bft) O-SO 112 4,6 C 0,0 km/h (0 Bft)
27.09.2015 20:45 8,4 C 8,2 C 76 % 1028,0 hPa 0,0 mm 0,3 km/h (0 Bft) O-SO 112 4,4 C 0,0 km/h (0 Bft)
27.09.2015 20:50 8,1 C 7,9 C 76 % 1028,0 hPa 0,0 mm 0,0 km/h (0 Bft) O-NO 67 4,1 C 0,0 km/h (0 Bft)
27.09.2015 20:55 8,0 C 7,8 C 76 % 1027,9 hPa 0,0 mm 0,0 km/h (0 Bft) S-SO 157 4,0 C 0,0 km/h (0 Bft)
27.09.2015 21:00 7,8 C 7,6 C 76 % 1027,9 hPa 0,0 mm 0,0 km/h (0 Bft) O-NO 67 3,8 C 0,0 km/h (0 Bft)
27.09.2015 21:05 7,9 C 7,7 C 77 % 1027,9 hPa 0,0 mm 0,3 km/h (0 Bft) S-SO 157 4,1 C 0,0 km/h (0 Bft)
27.09.2015 21:10 7,8 C 7,5 C 77 % 1027,9 hPa 0,0 mm 0,3 km/h (0 Bft) O 90 4,0 C 0,0 km/h (0 Bft)
27.09.2015 21:15 7,6 C 7,4 C 78 % 1028,0 hPa 0,0 mm 0,0 km/h (0 Bft) O 90 4,0 C 0,0 km/h (0 Bft)
27.09.2015 21:20 7,7 C 7,4 C 78 % 1028,0 hPa 0,0 mm 0,0 km/h (0 Bft) S-SO 157 4,1 C 0,0 km/h (0 Bft)
27.09.2015 21:25 7,6 C 7,3 C 78 % 1028,0 hPa 0,0 mm 0,0 km/h (0 Bft) SO 135 4,0 C 0,0 km/h (0 Bft)
27.09.2015 21:30 7,5 C 7,2 C 78 % 1028,0 hPa 0,0 mm 0,0 km/h (0 Bft) SO 135 3,9 C 0,0 km/h (0 Bft)
27.09.2015 21:35 7,5 C 7,2 C 79 % 1028,1 hPa 0,0 mm 0,0 km/h (0 Bft) S-SO 157 4,1 C 0,0 km/h (0 Bft)
27.09.2015 21:40 7,4 C 7,1 C 79 % 1028,1 hPa 0,0 mm 0,0 km/h (0 Bft) S 180 4,0 C 0,0 km/h (0 Bft)
27.09.2015 21:45 7,3 C 7,0 C 79 % 1028,1 hPa 0,0 mm 0,0 km/h (0 Bft) SO 135 3,9 C 0,0 km/h (0 Bft)
27.09.2015 21:50 7,1 C 6,8 C 79 % 1028,1 hPa 0,0 mm 0,0 km/h (0 Bft) S-SO 157 3,7 C 0,0 km/h (0 Bft)
27.09.2015 21:55 7,0 C 6,7 C 79 % 1028,3 hPa 0,0 mm 0,0 km/h (0 Bft) S-SO 157 3,6 C 0,0 km/h (0 Bft)
27.09.2015 22:00 7,1 C 6,9 C 78 % 1028,3 hPa 0,0 mm 0,0 km/h (0 Bft) O 90 3,5 C 0,0 km/h (0 Bft)
27.09.2015 22:05 7,3 C 7,0 C 80 % 1028,3 hPa 0,0 mm 0,3 km/h (0 Bft) SO 135 4,1 C 0,0 km/h (0 Bft)
27.09.2015 22:10 7,2 C 6,9 C 79 % 1028,3 hPa 0,0 mm 0,3 km/h (0 Bft) SO 135 3,8 C 0,0 km/h (0 Bft)
27.09.2015 22:15 6,9 C 6,6 C 80 % 1028,2 hPa 0,0 mm 0,0 km/h (0 Bft) SO 135 3,7 C 0,0 km/h (0 Bft)
27.09.2015 22:20 6,5 C 6,3 C 79 % 1028,2 hPa 0,0 mm 0,0 km/h (0 Bft) SO 135 3,1 C 0,0 km/h (0 Bft)
27.09.2015 22:25 6,4 C 6,1 C 80 % 1028,2 hPa 0,0 mm 0,0 km/h (0 Bft) O-SO 112 3,2 C 0,0 km/h (0 Bft)
27.09.2015 22:30 6,3 C 5,9 C 80 % 1028,2 hPa 0,0 mm 0,0 km/h (0 Bft) O-SO 112 3,1 C 0,0 km/h (0 Bft)
27.09.2015 22:35 6,2 C 5,8 C 80 % 1028,1 hPa 0,0 mm 0,0 km/h (0 Bft) S 180 3,0 C 0,0 km/h (0 Bft)
27.09.2015 22:40 5,8 C 5,4 C 81 % 1028,1 hPa 0,0 mm 0,0 km/h (0 Bft) S 180 2,8 C 0,0 km/h (0 Bft)
27.09.2015 22:45 5,6 C 5,2 C 81 % 1028,1 hPa 0,0 mm 0,0 km/h (0 Bft) S 180 2,6 C 0,0 km/h (0 Bft)
27.09.2015 22:50 5,3 C 4,9 C 81 % 1028,1 hPa 0,0 mm 0,0 km/h (0 Bft) S 180 2,3 C 0,0 km/h (0 Bft)
27.09.2015 22:55 5,1 C 4,7 C 81 % 1028,2 hPa 0,0 mm 0,0 km/h (0 Bft) O-SO 112 2,1 C 0,0 km/h (0 Bft)
27.09.2015 23:00 4,7 C 4,3 C 81 % 1028,2 hPa 0,0 mm 0,0 km/h (0 Bft) O-SO 112 1,7 C 0,0 km/h (0 Bft)
27.09.2015 23:05 4,8 C 4,4 C 81 % 1028,2 hPa 0,0 mm 0,0 km/h (0 Bft) O-SO 112 1,8 C 0,0 km/h (0 Bft)
27.09.2015 23:10 4,7 C 4,3 C 82 % 1028,2 hPa 0,0 mm 0,0 km/h (0 Bft) O-SO 112 1,9 C 0,0 km/h (0 Bft)
27.09.2015 23:15 4,5 C 4,1 C 82 % 1028,1 hPa 0,0 mm 0,0 km/h (0 Bft) SO 135 1,7 C 0,0 km/h (0 Bft)
27.09.2015 23:20 4,5 C 4,1 C 82 % 1028,1 hPa 0,0 mm 0,0 km/h (0 Bft) S 180 1,7 C 0,0 km/h (0 Bft)
27.09.2015 23:25 4,6 C 4,1 C 83 % 1028,1 hPa 0,0 mm 0,0 km/h (0 Bft) S-SO 157 2,0 C 0,0 km/h (0 Bft)
27.09.2015 23:30 4,2 C 3,8 C 83 % 1028,1 hPa 0,0 mm 0,0 km/h (0 Bft) S-SO 157 1,6 C 0,0 km/h (0 Bft)
27.09.2015 23:35 4,2 C 3,8 C 83 % 1028,1 hPa 0,0 mm 0,0 km/h (0 Bft) O-SO 112 1,6 C 0,0 km/h (0 Bft)
27.09.2015 23:40 3,8 C 3,4 C 83 % 1028,1 hPa 0,0 mm 0,0 km/h (0 Bft) O-SO 112 1,2 C 0,0 km/h (0 Bft)
27.09.2015 23:45 3,6 C 3,2 C 83 % 1028,1 hPa 0,0 mm 0,0 km/h (0 Bft) O-SO 112 1,0 C 0,0 km/h (0 Bft)
27.09.2015 23:50 3,5 C 3,1 C 83 % 1028,1 hPa 0,0 mm 0,0 km/h (0 Bft) O-SO 112 0,9 C 0,0 km/h (0 Bft)
27.09.2015 23:55 3,4 C 3,0 C 83 % 1028,2 hPa 0,0 mm 0,0 km/h (0 Bft) O-SO 112 0,8 C 0,0 km/h (0 Bft)
_ Min-Zeit 23:55 23:55 14:55 04:50 - 23:55 - - 23:55 23:55
Minimum _ 3,4 C 3,0 C 61 % 1022,6 hPa - 0,0 km/h (0 Bft) - - 0,8 C 0,0 km/h (0 Bft)
_ Max-Zeit 14:45 11:35 07:15 22:10 23:55 12:35 - - 11:35 15:50
Maximum _ 13,0 C 16,1 C 88 % 1028,3 hPa 0,0 mm 17,1 km/h
O-NO (3 Bft)
- - 7,4 C 37,8 km/h
NO (5 Bft)
Durchschnitt _ 9,6 C 10,1 C 77 % 1025,3 hPa #0,0 mm 4,5 km/h (1 Bft) O-NO - 5,7 C 6,4 km/h (2 Bft)